Time;durP1;ratioP1;P1;durP2;ratioP2;P2;SDS_P1;SDS_P2;PMS_P1;PMS_P2;Temp;Humidity;BMP_temperature;BMP_pressure;BME280_temperature;BME280_humidity;BME280_pressure;Samples;Min_cycle;Max_cycle;Signal;HPM_P1;HPM_P2
2022/07/21 00:01:08;;;;;;;8.10;6.63;;;19.50;1.00;;;;;;5083514;28;20804;-59
2022/07/21 00:03:38;;;;;;;7.93;7.23;;;19.40;1.00;;;;;;5084153;28;20465;-59
2022/07/21 00:06:07;;;;;;;8.20;7.50;;;19.40;1.00;;;;;;5084193;28;20968;-60
2022/07/21 00:08:34;;;;;;;8.87;8.03;;;19.40;1.00;;;;;;5083732;28;20432;-59
2022/07/21 00:11:01;;;;;;;7.77;7.07;;;19.40;1.00;;;;;;5083773;28;20957;-59
2022/07/21 00:13:36;;;;;;;8.20;7.40;;;19.30;1.00;;;;;;5084238;28;20524;-59
2022/07/21 00:16:03;;;;;;;8.70;8.00;;;19.20;1.00;;;;;;5083722;28;20456;-59
2022/07/21 00:18:32;;;;;;;9.37;8.47;;;19.30;1.00;;;;;;5083384;28;20882;-59
2022/07/21 00:21:04;;;;;;;8.97;7.47;;;19.30;1.00;;;;;;5083128;28;20461;-57
2022/07/21 00:23:34;;;;;;;9.43;8.63;;;19.30;1.00;;;;;;5083601;28;20440;-60
2022/07/21 00:26:02;;;;;;;10.17;8.47;;;19.30;1.00;;;;;;5083341;28;20943;-60
2022/07/21 00:28:32;;;;;;;10.07;9.07;;;19.30;1.00;;;;;;5083097;28;20432;-60
2022/07/21 00:30:59;;;;;;;9.33;8.33;;;19.40;1.00;;;;;;5082934;28;20548;-60
2022/07/21 00:33:27;;;;;;;10.30;9.37;;;19.40;1.00;;;;;;5083094;28;20522;-61
2022/07/21 00:35:57;;;;;;;9.93;9.10;;;19.40;1.00;;;;;;5083174;28;20511;-61
2022/07/21 00:38:25;;;;;;;10.40;9.40;;;19.60;1.00;;;;;;5083211;28;20580;-60
2022/07/21 00:40:52;;;;;;;10.17;9.17;;;19.50;1.00;;;;;;5082059;28;20531;-61
2022/07/21 00:43:20;;;;;;;10.03;9.13;;;19.50;1.00;;;;;;5082706;28;20755;-62
2022/07/21 00:45:48;;;;;;;10.87;9.80;;;19.50;1.00;;;;;;5082572;28;20501;-61
2022/07/21 00:48:15;;;;;;;10.60;9.50;;;19.60;1.00;;;;;;5080491;28;20457;-60
2022/07/21 00:50:45;;;;;;;11.13;10.23;;;19.60;1.00;;;;;;5079750;28;20442;-60
2022/07/21 00:53:14;;;;;;;11.47;10.37;;;19.60;1.00;;;;;;5080623;28;20436;-60
2022/07/21 00:55:43;;;;;;;11.20;10.00;;;19.60;1.00;;;;;;5080036;28;20461;-59
2022/07/21 00:58:13;;;;;;;11.40;10.40;;;19.70;1.00;;;;;;5078195;28;20492;-59
2022/07/21 01:00:41;;;;;;;11.50;10.50;;;19.70;1.00;;;;;;5077830;28;20805;-57
2022/07/21 01:03:09;;;;;;;11.87;10.87;;;19.60;1.00;;;;;;5078349;28;20466;-59
2022/07/21 01:05:36;;;;;;;11.97;10.87;;;19.60;1.00;;;;;;5078533;28;20465;-59
2022/07/21 01:08:04;;;;;;;12.03;10.47;;;19.50;1.00;;;;;;5078621;28;20944;-57
2022/07/21 01:10:33;;;;;;;11.60;10.50;;;19.50;1.00;;;;;;5078839;28;20944;-56
2022/07/21 01:13:01;;;;;;;12.87;11.53;;;19.40;1.00;;;;;;5078387;28;20873;-57
2022/07/21 01:15:31;;;;;;;13.20;11.90;;;19.40;1.00;;;;;;5077918;28;20516;-57
2022/07/21 01:17:59;;;;;;;11.93;10.83;;;19.40;1.00;;;;;;5078037;28;20475;-57
2022/07/21 01:20:26;;;;;;;13.73;12.43;;;19.40;1.00;;;;;;5078212;28;20731;-57
2022/07/21 01:22:57;;;;;;;14.30;13.10;;;19.40;1.00;;;;;;5077673;28;20469;-56
2022/07/21 01:25:24;;;;;;;13.13;12.00;;;19.50;55.40;;;;;;5078089;28;20510;-55
2022/07/21 01:27:51;;;;;;;14.60;13.30;;;19.50;99.90;;;;;;5077644;28;20465;-58
2022/07/21 08:51:22;;;;;;;10.47;9.60;;;23.00;99.90;;;;;;5077712;28;20432;-58
2022/07/21 08:53:50;;;;;;;8.73;8.03;;;22.70;99.90;;;;;;5078785;28;20888;-56
2022/07/21 08:56:20;;;;;;;9.40;8.60;;;22.40;99.90;;;;;;5077808;28;20428;-53
2022/07/21 08:58:47;;;;;;;9.83;8.93;;;22.40;99.90;;;;;;5078962;28;20475;-59
2022/07/21 09:01:14;;;;;;;11.67;8.13;;;22.20;99.90;;;;;;5078027;28;20915;-59
2022/07/21 09:03:43;;;;;;;8.80;7.90;;;22.30;99.90;;;;;;5078707;28;20761;-59
2022/07/21 09:06:18;;;;;;;8.47;7.63;;;22.60;99.90;;;;;;5076371;28;20470;-59
2022/07/21 09:08:54;;;;;;;9.43;8.53;;;23.10;99.90;;;;;;5077346;28;20431;-59
2022/07/21 09:11:24;;;;;;;9.33;8.43;;;23.30;99.90;;;;;;5077990;28;20522;-59
2022/07/21 09:14:06;;;;;;;8.30;7.70;;;23.80;99.90;;;;;;5078199;28;20544;-59
2022/07/21 09:16:35;;;;;;;9.93;9.03;;;23.80;99.90;;;;;;5078297;28;20472;-59
2022/07/21 09:19:04;;;;;;;10.43;9.60;;;23.50;99.90;;;;;;5078454;28;20488;-59
2022/07/21 09:21:37;;;;;;;9.07;8.27;;;23.20;99.90;;;;;;5078753;28;20439;-59
2022/07/21 09:24:32;;;;;;;9.40;8.60;;;23.20;99.90;;;;;;5078232;28;20706;-59
2022/07/21 09:27:08;;;;;;;10.27;9.47;;;23.40;99.90;;;;;;5076537;28;20564;-61
2022/07/21 09:29:50;;;;;;;11.37;10.47;;;23.60;99.90;;;;;;5077585;28;20764;-60
2022/07/21 09:32:28;;;;;;;12.47;11.40;;;23.20;99.90;;;;;;5077725;28;20465;-59
2022/07/21 09:35:05;;;;;;;11.17;10.17;;;22.80;99.90;;;;;;5077382;28;20749;-58
2022/07/21 09:37:37;;;;;;;11.67;10.73;;;22.90;99.90;;;;;;5077943;28;20464;-60
2022/07/21 09:40:13;;;;;;;12.93;11.87;;;22.80;99.90;;;;;;5077918;28;20919;-60
2022/07/21 09:42:44;;;;;;;10.20;9.40;;;22.70;99.90;;;;;;5077181;28;20468;-60
2022/07/21 09:45:16;;;;;;;10.37;9.47;;;22.50;99.90;;;;;;5077610;28;20461;-60
2022/07/21 09:47:45;;;;;;;10.43;9.53;;;22.30;99.90;;;;;;5076991;28;20446;-60
2022/07/21 09:50:14;;;;;;;10.83;9.90;;;22.30;99.90;;;;;;5077042;28;20461;-60
2022/07/21 09:52:44;;;;;;;10.80;9.67;;;22.20;99.90;;;;;;5077511;28;20560;-59
2022/07/21 09:55:18;;;;;;;11.30;10.50;;;22.20;99.90;;;;;;5077257;28;20542;-60
2022/07/21 09:57:46;;;;;;;11.50;10.50;;;22.30;99.90;;;;;;5075692;28;20465;-60
2022/07/21 10:00:15;;;;;;;11.40;10.30;;;22.50;99.90;;;;;;5065203;28;20500;-60
2022/07/21 10:02:44;;;;;;;11.13;10.20;;;22.80;99.90;;;;;;5067281;28;20448;-59
2022/07/21 10:05:13;;;;;;;11.80;10.80;;;23.20;99.90;;;;;;5077858;28;20494;-58
2022/07/21 10:07:46;;;;;;;135.40;27.87;;;23.40;99.90;;;;;;5076838;28;20470;-59
2022/07/21 10:10:17;;;;;;;11.20;10.20;;;23.80;99.90;;;;;;5076138;28;20560;-60
2022/07/21 10:12:47;;;;;;;10.23;9.40;;;24.30;99.90;;;;;;5074138;28;20548;-59
2022/07/21 10:15:15;;;;;;;15.80;9.77;;;24.60;99.90;;;;;;5076319;28;20564;-60
2022/07/21 10:17:44;;;;;;;9.93;8.83;;;24.80;99.90;;;;;;5075840;28;20475;-60
2022/07/21 10:20:19;;;;;;;10.27;9.20;;;25.00;99.90;;;;;;5076263;28;20495;-60
2022/07/21 10:23:01;;;;;;;13.30;10.50;;;25.00;99.90;;;;;;5076848;28;20471;-60
2022/07/21 10:25:34;;;;;;;12.10;9.87;;;24.80;99.90;;;;;;5076403;28;20457;-60
2022/07/21 10:28:18;;;;;;;10.50;9.50;;;24.20;99.90;;;;;;5056419;28;20436;-60
2022/07/21 10:30:54;;;;;;;10.47;9.57;;;23.90;99.90;;;;;;5067646;28;20518;-58
2022/07/21 10:33:46;;;;;;;10.43;9.53;;;23.50;99.90;;;;;;5073333;28;20551;-60
2022/07/21 10:36:40;;;;;;;10.50;9.20;;;23.20;99.90;;;;;;5074409;28;20457;-59
2022/07/21 10:39:26;;;;;;;10.10;9.20;;;22.90;99.90;;;;;;5075456;28;20493;-60
2022/07/21 10:42:16;;;;;;;11.60;10.40;;;22.70;99.90;;;;;;5073738;28;20459;-60
2022/07/21 10:44:46;;;;;;;11.30;9.67;;;22.80;99.90;;;;;;5074354;28;20545;-59
2022/07/21 10:47:20;;;;;;;9.60;8.63;;;22.80;99.90;;;;;;5074692;28;20543;-59
2022/07/21 10:49:55;;;;;;;10.30;9.30;;;22.90;99.90;;;;;;5073174;28;20435;-59
2022/07/21 10:52:57;;;;;;;9.53;8.63;;;23.00;99.90;;;;;;5074251;28;20489;-60
2022/07/21 10:55:28;;;;;;;10.20;9.30;;;23.20;99.90;;;;;;5069560;28;20736;-60
2022/07/21 10:58:17;;;;;;;10.37;9.47;;;23.10;99.90;;;;;;5073896;28;20904;-59
2022/07/21 11:00:50;;;;;;;10.30;9.50;;;23.00;99.90;;;;;;5072549;28;20459;-59
2022/07/21 11:03:25;;;;;;;12.53;11.53;;;22.90;99.90;;;;;;5074599;28;20468;-59
2022/07/21 11:06:23;;;;;;;10.90;9.90;;;22.70;99.90;;;;;;5074482;28;20471;-59
2022/07/21 11:08:55;;;;;;;11.10;10.03;;;22.60;99.90;;;;;;5073114;28;20457;-59
2022/07/21 11:11:25;;;;;;;11.03;9.93;;;22.30;99.90;;;;;;5076210;28;20871;-59
2022/07/21 11:14:07;;;;;;;12.63;11.27;;;22.00;99.90;;;;;;5077849;28;20427;-59
2022/07/21 11:17:08;;;;;;;12.30;11.30;;;21.70;99.90;;;;;;5077770;28;20461;-59
2022/07/21 11:19:49;;;;;;;11.80;10.80;;;21.30;99.90;;;;;;5078083;28;20794;-60
2022/07/21 11:22:23;;;;;;;12.73;11.43;;;21.20;99.90;;;;;;5077595;28;20456;-60
2022/07/21 11:24:58;;;;;;;13.87;11.97;;;21.10;99.90;;;;;;5078884;28;20430;-58
2022/07/21 11:27:28;;;;;;;13.67;12.27;;;20.80;99.90;;;;;;5078856;28;20886;-58
2022/07/21 11:30:01;;;;;;;12.53;11.53;;;20.60;99.90;;;;;;5077570;28;20431;-55
2022/07/21 11:32:29;;;;;;;13.13;11.83;;;20.60;1.00;;;;;;5078561;28;20466;-58
2022/07/21 11:35:00;;;;;;;13.77;12.50;;;20.50;1.00;;;;;;5079545;28;20887;-55
2022/07/21 11:37:31;;;;;;;13.57;12.37;;;20.50;1.00;;;;;;5079943;28;20727;-57
2022/07/21 11:40:00;;;;;;;14.67;13.20;;;20.60;1.00;;;;;;5078939;28;20496;-54
2022/07/21 11:42:30;;;;;;;13.87;12.47;;;20.70;1.00;;;;;;5079671;28;20739;-52
2022/07/21 11:45:03;;;;;;;14.70;13.37;;;20.70;1.00;;;;;;5078523;28;20461;-57
2022/07/21 11:47:30;;;;;;;16.50;14.03;;;20.60;1.00;;;;;;5079629;28;20464;-57
2022/07/21 11:50:02;;;;;;;16.50;15.00;;;20.60;1.00;;;;;;5079202;28;20526;-55
2022/07/21 11:52:36;;;;;;;15.53;14.23;;;20.50;1.00;;;;;;5079773;28;20478;-58
2022/07/21 11:55:06;;;;;;;17.30;15.50;;;20.50;1.00;;;;;;5079901;28;20918;-57
2022/07/21 11:57:33;;;;;;;15.43;13.83;;;20.50;1.00;;;;;;5079886;28;20931;-57
2022/07/21 12:00:08;;;;;;;15.20;13.60;;;20.50;1.00;;;;;;5078283;28;20468;-53
2022/07/21 12:02:38;;;;;;;15.90;14.37;;;20.40;1.00;;;;;;5079582;28;20456;-57
2022/07/21 12:05:08;;;;;;;16.57;14.83;;;20.30;1.00;;;;;;5078020;28;20564;-57
2022/07/21 12:07:41;;;;;;;15.37;13.87;;;20.40;1.00;;;;;;5078250;28;20500;-57
2022/07/21 12:10:11;;;;;;;16.53;14.70;;;20.40;1.00;;;;;;5076284;28;20440;-57
2022/07/21 12:12:43;;;;;;;15.00;13.57;;;20.30;1.00;;;;;;5077619;28;20490;-56
2022/07/21 12:15:27;;;;;;;17.90;16.10;;;20.30;1.00;;;;;;5079068;28;20520;-56
2022/07/21 12:17:57;;;;;;;16.90;15.27;;;20.30;1.00;;;;;;5065553;28;20463;-52
2022/07/21 12:20:31;;;;;;;16.93;15.53;;;20.30;1.00;;;;;;5075464;28;20467;-51
2022/07/21 12:23:05;;;;;;;15.77;14.40;;;20.20;1.00;;;;;;5075051;28;20909;-56
2022/07/21 12:25:35;;;;;;;14.53;13.27;;;20.10;1.00;;;;;;5084587;28;20439;-52
2022/07/21 12:28:06;;;;;;;15.07;13.80;;;20.10;1.00;;;;;;5079024;28;20884;-53
2022/07/21 12:30:38;;;;;;;13.40;12.20;;;20.20;1.00;;;;;;5078558;28;20454;-52
2022/07/21 12:33:09;;;;;;;13.40;12.20;;;20.20;1.00;;;;;;5078289;28;20499;-54
2022/07/21 12:35:40;;;;;;;12.17;11.07;;;20.30;1.00;;;;;;5077363;28;20466;-51
2022/07/21 12:38:10;;;;;;;13.70;12.50;;;20.10;1.00;;;;;;5073536;28;20469;-53
2022/07/21 12:40:39;;;;;;;14.00;12.90;;;19.90;1.00;;;;;;5075844;28;20501;-51
2022/07/21 12:43:16;;;;;;;11.17;10.27;;;19.80;1.00;;;;;;5075594;28;20436;-55
2022/07/21 12:45:55;;;;;;;11.30;10.40;;;19.70;1.00;;;;;;5078141;28;20461;-53
2022/07/21 12:48:24;;;;;;;11.13;10.23;;;19.50;53.50;;;;;;5078609;28;20465;-55
2022/07/21 12:51:05;;;;;;;11.90;10.80;;;19.60;99.90;;;;;;5076786;28;20477;-51
2022/07/21 12:53:34;;;;;;;11.93;10.97;;;19.90;99.90;;;;;;5076471;28;20440;-51
2022/07/21 12:56:02;;;;;;;10.07;9.17;;;20.00;98.80;;;;;;5075880;28;20461;-53
2022/07/21 12:58:36;;;;;;;10.20;9.40;;;20.20;99.90;;;;;;5074109;28;20453;-55
2022/07/21 13:01:05;;;;;;;10.17;9.27;;;20.40;76.00;;;;;;5075511;28;20594;-55
2022/07/21 13:03:36;;;;;;;10.43;9.47;;;20.50;1.00;;;;;;5077985;28;20565;-50
2022/07/21 13:06:05;;;;;;;9.37;8.57;;;20.40;1.00;;;;;;5077211;28;20465;-54
2022/07/21 13:08:34;;;;;;;9.10;8.40;;;20.30;1.00;;;;;;5078282;28;20442;-55
2022/07/21 13:11:04;;;;;;;8.30;7.47;;;20.20;1.00;;;;;;5076902;28;20458;-52
2022/07/21 13:13:32;;;;;;;8.03;7.33;;;20.20;1.00;;;;;;5078216;28;20461;-51
2022/07/21 13:16:03;;;;;;;7.90;7.20;;;20.20;1.00;;;;;;5078637;28;20440;-50
2022/07/21 13:18:31;;;;;;;8.00;7.30;;;20.10;1.00;;;;;;5078061;28;20488;-51
2022/07/21 13:20:59;;;;;;;7.23;6.63;;;20.10;14.40;;;;;;5078249;28;20749;-55
2022/07/21 13:23:31;;;;;;;5.03;4.53;;;20.20;22.90;;;;;;5076871;28;20534;-55
2022/07/21 13:26:03;;;;;;;5.47;4.70;;;20.10;1.00;;;;;;5076369;28;20951;-56
2022/07/21 13:28:31;;;;;;;4.33;4.03;;;20.20;14.30;;;;;;5076218;28;20431;-58
2022/07/21 13:31:02;;;;;;;3.60;3.30;;;20.10;1.00;;;;;;5076399;28;20475;-54
2022/07/21 13:33:29;;;;;;;3.30;3.00;;;19.90;1.00;;;;;;5076908;28;20457;-51
2022/07/21 13:35:58;;;;;;;4.27;3.33;;;19.80;68.60;;;;;;5076428;28;20440;-57
2022/07/21 13:38:28;;;;;;;3.87;3.47;;;19.80;99.90;;;;;;5076541;28;20483;-50
2022/07/21 13:40:57;;;;;;;3.90;3.60;;;19.80;99.90;;;;;;5077817;28;20543;-50
2022/07/21 13:43:27;;;;;;;3.93;3.63;;;19.70;99.90;;;;;;5077997;28;20535;-53
2022/07/21 13:45:55;;;;;;;3.40;3.10;;;19.60;99.90;;;;;;5077464;28;20556;-57
2022/07/21 13:48:22;;;;;;;4.10;3.80;;;19.50;99.90;;;;;;5077438;28;20461;-56
2022/07/21 13:50:49;;;;;;;4.30;4.00;;;19.40;99.90;;;;;;5077378;28;20491;-58
2022/07/21 13:53:24;;;;;;;4.30;3.70;;;19.50;1.00;;;;;;5077614;28;20568;-56
2022/07/21 13:55:53;;;;;;;3.60;3.30;;;19.40;87.60;;;;;;5077058;28;20559;-52
2022/07/21 13:58:26;;;;;;;4.00;3.50;;;19.30;99.90;;;;;;5076848;28;20435;-55
2022/07/21 14:00:55;;;;;;;4.60;4.20;;;19.30;99.90;;;;;;5076265;28;20470;-56
2022/07/21 14:03:22;;;;;;;5.53;5.10;;;19.30;99.90;;;;;;5077462;28;20465;-58
2022/07/21 14:05:49;;;;;;;8.00;7.30;;;19.30;23.10;;;;;;5077205;28;20442;-58
2022/07/21 14:08:19;;;;;;;11.37;10.30;;;19.20;33.90;;;;;;5077205;28;20548;-56
2022/07/21 14:10:48;;;;;;;12.47;11.27;;;19.20;1.00;;;;;;5076965;28;20821;-52
2022/07/21 14:13:21;;;;;;;12.90;11.80;;;19.20;99.90;;;;;;5076791;28;20442;-55
2022/07/21 14:15:49;;;;;;;13.10;11.90;;;19.20;99.90;;;;;;5076143;28;20461;-58
2022/07/21 14:18:17;;;;;;;15.07;13.40;;;19.20;99.90;;;;;;5075228;28;20468;-53
2022/07/21 14:20:44;;;;;;;14.10;12.87;;;19.20;1.00;;;;;;5076877;28;20526;-50
2022/07/21 14:23:13;;;;;;;15.00;13.70;;;19.20;1.00;;;;;;5076452;28;20533;-53
2022/07/21 14:25:41;;;;;;;15.83;14.30;;;19.10;1.00;;;;;;5076645;28;20552;-49
2022/07/21 14:28:11;;;;;;;13.73;12.40;;;18.80;1.00;;;;;;5076563;28;20461;-54
2022/07/21 14:30:41;;;;;;;11.10;9.77;;;18.80;99.90;;;;;;5077248;28;20432;-53
2022/07/21 14:33:09;;;;;;;9.10;8.20;;;18.70;1.00;;;;;;5076684;28;20518;-52
2022/07/21 14:35:41;;;;;;;11.03;8.77;;;18.60;1.00;;;;;;5077500;28;20465;-56
2022/07/21 14:38:09;;;;;;;9.40;8.50;;;18.60;1.00;;;;;;5076205;28;20538;-51
2022/07/21 14:40:36;;;;;;;7.70;6.97;;;18.50;1.00;;;;;;5075624;28;20460;-58
2022/07/21 14:43:07;;;;;;;8.00;7.20;;;18.40;99.90;;;;;;5076856;28;20435;-55
2022/07/21 14:45:34;;;;;;;6.90;6.30;;;18.40;99.90;;;;;;5077787;28;20456;-56
2022/07/21 14:48:08;;;;;;;7.00;6.30;;;18.50;99.90;;;;;;5080655;28;20460;-53
2022/07/21 14:50:36;;;;;;;7.30;6.70;;;18.60;99.90;;;;;;5080789;28;20496;-58
2022/07/21 14:53:05;;;;;;;6.73;6.13;;;18.70;1.00;;;;;;5081232;28;20436;-56
2022/07/21 14:55:33;;;;;;;7.07;6.47;;;18.60;1.00;;;;;;5081077;28;20435;-57
2022/07/21 14:58:00;;;;;;;8.70;7.70;;;18.60;99.90;;;;;;5081108;28;20468;-53
2022/07/21 15:00:31;;;;;;;8.70;8.00;;;18.60;56.10;;;;;;5080651;28;20515;-52
2022/07/21 15:02:59;;;;;;;10.00;9.03;;;18.60;99.90;;;;;;5081105;28;20533;-53
2022/07/21 15:05:29;;;;;;;11.47;10.30;;;18.60;99.90;;;;;;5081317;28;20467;-55
2022/07/21 15:08:01;;;;;;;11.00;10.00;;;18.70;99.90;;;;;;5080687;28;20487;-56
2022/07/21 15:10:34;;;;;;;12.00;10.90;;;18.60;44.60;;;;;;5080722;28;20434;-59
2022/07/21 15:13:01;;;;;;;11.90;10.90;;;18.50;99.90;;;;;;5080655;28;20437;-57
2022/07/21 15:15:32;;;;;;;13.17;11.97;;;18.40;99.90;;;;;;5080899;28;20942;-54
2022/07/21 15:18:00;;;;;;;11.77;10.77;;;18.40;1.00;;;;;;5080322;28;20497;-58
2022/07/21 15:20:28;;;;;;;12.77;11.47;;;18.40;99.90;;;;;;5080860;28;20489;-51
2022/07/21 15:22:58;;;;;;;12.03;10.83;;;18.30;1.00;;;;;;5080953;28;20467;-57
2022/07/21 15:25:25;;;;;;;9.00;8.30;;;18.30;99.90;;;;;;5080891;28;20533;-51
2022/07/21 15:27:52;;;;;;;10.50;9.53;;;18.30;1.00;;;;;;5080102;28;20471;-56
2022/07/21 15:30:21;;;;;;;9.13;8.33;;;18.30;99.90;;;;;;5079950;28;20436;-57
2022/07/21 15:32:59;;;;;;;9.93;8.93;;;18.30;1.00;;;;;;5079751;28;20523;-57
2022/07/21 15:35:27;;;;;;;9.13;8.37;;;18.20;99.90;;;;;;5080346;28;20467;-58
2022/07/21 15:38:00;;;;;;;9.43;8.43;;;18.00;1.00;;;;;;5079528;28;20464;-55
2022/07/21 15:40:27;;;;;;;9.83;8.97;;;18.00;99.90;;;;;;5080053;28;20498;-56
2022/07/21 15:42:55;;;;;;;10.87;9.90;;;18.10;99.90;;;;;;5080399;28;20885;-54
2022/07/21 15:45:22;;;;;;;11.43;10.43;;;18.10;99.90;;;;;;5079430;28;20444;-55
2022/07/21 15:47:51;;;;;;;12.03;10.90;;;18.10;99.90;;;;;;5079978;28;20530;-59
2022/07/21 15:50:20;;;;;;;13.23;12.03;;;18.20;99.90;;;;;;5080015;28;20503;-56
2022/07/21 15:52:47;;;;;;;13.17;11.97;;;18.10;99.90;;;;;;5079495;28;20442;-55
2022/07/21 15:55:18;;;;;;;12.97;11.53;;;18.10;99.90;;;;;;5079690;28;20480;-55
2022/07/21 15:57:45;;;;;;;14.10;12.97;;;18.20;99.90;;;;;;5078844;28;20465;-56
2022/07/21 16:00:15;;;;;;;14.33;12.90;;;18.20;99.90;;;;;;5078832;28;20463;-58
2022/07/21 16:02:44;;;;;;;14.10;12.80;;;18.20;99.90;;;;;;5079271;28;20823;-55
2022/07/21 16:05:16;;;;;;;13.03;11.93;;;18.20;99.90;;;;;;5079182;28;20461;-55
2022/07/21 16:07:46;;;;;;;13.03;11.93;;;18.10;99.90;;;;;;5079733;28;20466;-56
2022/07/21 16:10:17;;;;;;;15.60;14.30;;;18.20;99.90;;;;;;5079999;28;20475;-54
2022/07/21 16:12:44;;;;;;;15.17;13.77;;;18.30;99.90;;;;;;5079795;28;20442;-53
2022/07/21 16:15:13;;;;;;;19.47;17.40;;;18.30;99.90;;;;;;5079583;28;20763;-55
2022/07/21 16:17:42;;;;;;;19.50;17.60;;;18.30;99.90;;;;;;5079942;28;20501;-53
2022/07/21 16:20:11;;;;;;;17.90;16.07;;;18.10;99.90;;;;;;5079600;28;20514;-57
2022/07/21 16:22:47;;;;;;;17.13;15.10;;;18.10;99.90;;;;;;5079616;28;20489;-55
2022/07/21 16:25:17;;;;;;;11.43;10.30;;;18.10;99.90;;;;;;5079279;28;20440;-52
2022/07/21 16:27:45;;;;;;;11.97;9.53;;;18.00;99.90;;;;;;5079687;28;20462;-49
2022/07/21 16:30:16;;;;;;;11.50;10.60;;;17.90;99.90;;;;;;5079539;28;20470;-55
2022/07/21 16:32:45;;;;;;;11.67;10.67;;;17.90;99.90;;;;;;5079246;28;20886;-56
2022/07/21 16:35:16;;;;;;;10.43;9.43;;;17.90;99.90;;;;;;5078850;28;20461;-54
2022/07/21 16:37:50;;;;;;;11.77;10.50;;;18.00;99.90;;;;;;5078355;28;20774;-57
2022/07/21 16:40:24;;;;;;;10.10;9.30;;;17.90;99.90;;;;;;5078216;28;20484;-53
2022/07/21 16:42:52;;;;;;;10.77;9.70;;;17.80;99.90;;;;;;5078714;28;20424;-54
2022/07/21 16:45:23;;;;;;;18.20;10.23;;;17.90;99.90;;;;;;5078376;28;20456;-58
2022/07/21 16:47:56;;;;;;;10.57;9.47;;;18.00;99.90;;;;;;5078785;28;20436;-54
2022/07/21 16:50:27;;;;;;;8.90;8.10;;;17.90;99.90;;;;;;5078759;28;20462;-56
2022/07/21 16:52:56;;;;;;;9.80;8.90;;;17.90;99.90;;;;;;5078467;28;20469;-54
2022/07/21 16:55:26;;;;;;;11.77;10.67;;;18.10;99.90;;;;;;5078419;28;20457;-52
2022/07/21 16:57:57;;;;;;;10.23;9.23;;;18.10;99.90;;;;;;5077999;28;20427;-55
2022/07/21 17:00:30;;;;;;;11.33;10.23;;;18.00;99.90;;;;;;5078852;28;20457;-58
2022/07/21 17:02:57;;;;;;;11.27;10.17;;;17.90;99.90;;;;;;5078607;28;20506;-52
2022/07/21 17:05:25;;;;;;;11.90;10.80;;;17.90;99.90;;;;;;5078233;28;20468;-52
2022/07/21 17:07:52;;;;;;;11.90;10.90;;;17.80;99.90;;;;;;5078679;28;20491;-57
2022/07/21 17:10:28;;;;;;;13.20;11.83;;;17.80;99.90;;;;;;5078327;28;20439;-58
2022/07/21 17:12:55;;;;;;;14.40;12.40;;;17.80;99.90;;;;;;5078488;28;20515;-57
2022/07/21 17:15:24;;;;;;;12.90;11.70;;;17.70;99.90;;;;;;5078274;28;20496;-59
2022/07/21 17:17:54;;;;;;;13.27;12.07;;;17.70;99.90;;;;;;5078171;28;20467;-59
2022/07/21 17:20:24;;;;;;;12.37;10.73;;;17.70;99.90;;;;;;5078370;28;20461;-58
2022/07/21 17:22:51;;;;;;;11.30;10.10;;;17.70;99.90;;;;;;5077058;28;20529;-56
2022/07/21 17:25:24;;;;;;;12.57;11.27;;;17.70;99.90;;;;;;5077124;28;20472;-56
2022/07/21 17:27:54;;;;;;;13.10;11.57;;;17.70;99.90;;;;;;5078429;28;20829;-58
2022/07/21 17:30:22;;;;;;;11.37;10.37;;;17.70;99.90;;;;;;5076444;28;20453;-59
2022/07/21 17:32:52;;;;;;;15.73;11.77;;;17.70;99.90;;;;;;5076356;28;20459;-58
2022/07/21 17:35:22;;;;;;;11.33;10.30;;;17.70;99.90;;;;;;5076546;28;20453;-58
2022/07/21 17:37:50;;;;;;;11.67;10.57;;;17.70;99.90;;;;;;5074411;28;20452;-58
2022/07/21 17:40:18;;;;;;;13.47;10.70;;;17.70;99.90;;;;;;5076393;28;20457;-53
2022/07/21 17:42:49;;;;;;;12.50;11.40;;;17.70;99.90;;;;;;5072937;28;20481;-54
2022/07/21 17:45:19;;;;;;;12.50;11.30;;;17.70;99.90;;;;;;5075285;28;20592;-52
2022/07/21 17:47:46;;;;;;;12.60;11.40;;;17.70;99.90;;;;;;5076608;28;20484;-55
2022/07/21 17:50:14;;;;;;;10.67;9.67;;;17.70;99.90;;;;;;5075299;28;20463;-55
2022/07/21 17:52:47;;;;;;;13.63;10.50;;;17.70;99.90;;;;;;5076578;28;20457;-57
2022/07/21 17:55:16;;;;;;;10.77;9.70;;;17.70;99.90;;;;;;5075501;28;20444;-59
2022/07/21 18:00:31;;;;;;;11.50;10.33;;;17.80;99.90;;;;;;5077128;28;20449;-58
2022/07/21 18:02:59;;;;;;;12.00;10.90;;;17.60;99.90;;;;;;5076249;28;20604;-55
2022/07/21 18:05:36;;;;;;;12.07;10.97;;;17.70;99.90;;;;;;5075511;28;20870;-58
2022/07/21 18:08:03;;;;;;;23.13;12.13;;;17.60;99.90;;;;;;5076196;28;20432;-57
2022/07/21 18:10:31;;;;;;;14.10;10.83;;;17.60;99.90;;;;;;5073349;28;20481;-60
2022/07/21 18:12:58;;;;;;;12.80;11.60;;;17.60;99.90;;;;;;5074054;28;20519;-59
2022/07/21 18:15:30;;;;;;;11.70;10.60;;;17.60;99.90;;;;;;5075492;28;20442;-54
2022/07/21 18:17:58;;;;;;;12.97;11.87;;;17.50;99.90;;;;;;5074953;28;20461;-57
2022/07/21 18:20:28;;;;;;;11.67;10.77;;;17.50;99.90;;;;;;5074903;28;20521;-59
2022/07/21 18:22:58;;;;;;;12.30;11.07;;;17.50;99.90;;;;;;5073528;28;20502;-56
2022/07/21 18:25:31;;;;;;;12.80;11.63;;;17.50;99.90;;;;;;5074921;28;20436;-58
2022/07/21 18:28:01;;;;;;;14.50;13.00;;;17.40;99.90;;;;;;5075813;28;20445;-56
2022/07/21 18:30:34;;;;;;;13.30;12.10;;;17.40;99.90;;;;;;5075583;28;20439;-57
2022/07/21 18:33:08;;;;;;;14.20;12.97;;;17.50;99.90;;;;;;5076709;28;20471;-58
2022/07/21 18:35:37;;;;;;;15.43;12.37;;;17.40;99.90;;;;;;5076758;28;20462;-53
2022/07/21 18:38:05;;;;;;;14.50;12.40;;;17.40;99.90;;;;;;5072995;28;20507;-59
2022/07/21 18:40:34;;;;;;;14.13;12.43;;;17.30;99.90;;;;;;5076042;28;20463;-58
2022/07/21 18:43:02;;;;;;;14.50;13.30;;;17.30;99.90;;;;;;5075203;28;20463;-57
2022/07/21 18:45:41;;;;;;;19.20;13.93;;;17.30;99.90;;;;;;5075218;28;20450;-52
2022/07/21 18:48:12;;;;;;;15.73;14.00;;;17.30;99.90;;;;;;5057261;28;20462;-50
2022/07/21 18:50:40;;;;;;;16.30;14.27;;;17.30;99.90;;;;;;5056048;28;20469;-58
2022/07/21 18:53:11;;;;;;;17.67;16.07;;;17.30;99.90;;;;;;5065848;28;20421;-57
2022/07/21 18:55:38;;;;;;;15.73;14.00;;;17.40;99.90;;;;;;5076147;28;20432;-56
2022/07/21 18:58:18;;;;;;;14.20;13.00;;;17.30;99.90;;;;;;5076320;28;20434;-56
2022/07/21 19:00:48;;;;;;;14.07;12.67;;;17.30;99.90;;;;;;5076135;28;20818;-55
2022/07/21 19:03:16;;;;;;;15.90;14.50;;;17.30;99.90;;;;;;5075612;28;20544;-53
2022/07/21 19:05:46;;;;;;;15.37;13.93;;;17.30;99.90;;;;;;5076109;28;20438;-57
2022/07/21 19:08:13;;;;;;;13.90;12.47;;;17.30;99.90;;;;;;5076259;28;20457;-59
2022/07/21 19:10:43;;;;;;;15.10;13.70;;;17.30;99.90;;;;;;5077057;28;20535;-53
2022/07/21 19:13:10;;;;;;;15.67;14.27;;;17.20;99.90;;;;;;5076612;28;20436;-55
2022/07/21 19:15:40;;;;;;;14.60;13.30;;;17.20;99.90;;;;;;5076574;28;20727;-53
2022/07/21 19:18:09;;;;;;;13.33;12.00;;;17.20;99.90;;;;;;5076755;28;20443;-55
2022/07/21 19:20:36;;;;;;;14.50;12.97;;;17.10;99.90;;;;;;5076855;28;20920;-59
2022/07/21 19:23:10;;;;;;;13.30;12.10;;;17.10;99.90;;;;;;5075399;28;20496;-56
2022/07/21 19:25:43;;;;;;;14.83;13.33;;;17.20;99.90;;;;;;5076907;28;20468;-52
2022/07/21 19:28:11;;;;;;;14.23;12.83;;;17.10;99.90;;;;;;5076283;28;20453;-55
2022/07/21 19:30:42;;;;;;;13.03;11.73;;;17.20;99.90;;;;;;5075269;28;20461;-55
2022/07/21 19:33:10;;;;;;;15.03;12.43;;;17.20;99.90;;;;;;5075373;28;20531;-58
2022/07/21 19:35:39;;;;;;;14.37;12.97;;;17.20;99.90;;;;;;5078951;28;20432;-52
2022/07/21 19:38:06;;;;;;;14.63;13.23;;;17.10;99.90;;;;;;5076168;28;20886;-57
2022/07/21 19:40:36;;;;;;;14.60;13.20;;;17.00;99.90;;;;;;5080545;28;20454;-58
2022/07/21 19:43:05;;;;;;;14.10;12.70;;;17.10;99.90;;;;;;5079792;28;20495;-55
2022/07/21 19:45:33;;;;;;;15.87;14.30;;;17.00;99.90;;;;;;5080096;28;20922;-53
2022/07/21 19:48:02;;;;;;;13.30;12.00;;;17.00;99.90;;;;;;5080085;28;20483;-54
2022/07/21 19:50:31;;;;;;;14.33;12.90;;;17.00;99.90;;;;;;5079763;28;20492;-55
2022/07/21 19:53:04;;;;;;;13.10;11.80;;;17.00;99.90;;;;;;5079864;28;20461;-58
2022/07/21 19:55:40;;;;;;;13.87;12.47;;;17.00;99.90;;;;;;5080220;28;20518;-56
2022/07/21 19:58:10;;;;;;;13.87;12.53;;;17.00;99.90;;;;;;5080161;28;20460;-56
2022/07/21 20:00:41;;;;;;;13.77;12.30;;;16.90;99.90;;;;;;5079401;28;20440;-52
2022/07/21 20:03:08;;;;;;;13.87;12.47;;;16.90;99.90;;;;;;5079385;28;20538;-56
2022/07/21 20:05:37;;;;;;;13.53;12.23;;;16.90;99.90;;;;;;5079530;28;20435;-55
2022/07/21 20:08:05;;;;;;;13.17;11.97;;;16.90;99.90;;;;;;5079747;28;20447;-52
2022/07/21 20:10:34;;;;;;;13.80;12.50;;;16.90;99.90;;;;;;5079696;28;20496;-56
2022/07/21 20:13:06;;;;;;;14.43;13.13;;;16.90;99.90;;;;;;5079146;28;20432;-56
2022/07/21 20:15:40;;;;;;;15.40;13.80;;;16.90;99.90;;;;;;5079138;28;20486;-55
2022/07/21 20:18:08;;;;;;;15.10;13.70;;;16.80;99.90;;;;;;5079913;28;20467;-51